This demonstration page uses our WeatherBlox Daily Observations layout. Learn more.

38.89511, -77.03637

Hourly Observations for July 4, 2017

Temp ( °F °C ) Dew Point ( °F °C ) Humidity (%) Winds ( mph kmh ) Pressure ( in mb ) Visibility ( mi km ) Precip ( " mm )
12:52 am 00:52 Cloudy 79 26.1 71 21.7 77 77 S 6 9 30 1016 10 16.09344 0 0
1:52 am 01:52 Mostly Cloudy 78 25.6 73 22.8 85 85 S 5 7 30 1016 10 16.09344 0 0
2:52 am 02:52 Mostly Cloudy 78 25.6 71 21.7 79 79 S 3 6 29.97 1015 10 16.09344 0 0
3:52 am 03:52 Mostly Cloudy 78 25.6 71 21.7 79 79 SW 3 6 29.97 1015 10 16.09344 0 0
4:52 am 04:52 Mostly Cloudy 76 24.4 71 21.7 85 85 NNW 6 9 30 1016 10 16.09344 0 0
5:52 am 05:52 Cloudy 78 25.6 67 19.4 69 69 Calm 30 1016 10 16.09344 0 0
6:52 am 06:52 Mostly Cloudy 78 25.6 70 21.1 76 76 WSW 3 6 30 1016 10 16.09344 0 0
7:52 am 07:52 Cloudy 79 26.1 72 22.2 79 79 SSW 5 7 30.03 1017 10 16.09344 0 0
8:52 am 08:52 Cloudy 83 28.3 70 21.1 65 65 Calm 30.03 1017 10 16.09344 0 0
9:52 am 09:52 Cloudy 85 29.4 68 20 57 57 NNW 5 7 30.03 1017 10 16.09344 0 0
10:52 am 10:52 Sunny 87 30.6 68 20 53 53 NNE 3 6 30.03 1017 10 16.09344 0 0
11:52 am 11:52 Cloudy 90 32.2 66 18.9 45 45 Calm 30.03 1017 10 16.09344 0 0
12:52 pm 12:52 Cloudy 89 31.7 65 18.3 45 45 SE 3 6 30.03 1017 10 16.09344 0 0
1:52 pm 13:52 Cloudy 90 32.2 68 20 48 48 S 7 11 30 1016 10 16.09344 0 0
2:02 pm 14:02 Cloudy 89 31.7 68 20 50 50 S 7 11 30.03 1017 10 16.09344 0 0
2:52 pm 14:52 Mostly Cloudy 90 32.2 68 20 48 48 S 12 19 30 1016 10 16.09344 0 0
3:52 pm 15:52 Mostly Cloudy 90 32.2 65 18.3 44 44 S 6 9 29.97 1015 10 16.09344 0 0
4:45 pm 16:45 Mostly Cloudy with Light Thunderstorms 87 30.6 68 20 53 53 SE 6 9 30 1016 10 16.09344 0.001 0.001
4:52 pm 16:52 Mostly Cloudy with Light Thunderstorms 87 30.6 68 20 53 53 N 6 9 30 1016 10 16.09344 0.001 0.001
5:23 pm 17:23 Mostly Cloudy with Light Rain 81 27.2 71 21.7 72 72 NW 9 15 30 1016 10 16.09344 0.04 1.016
5:52 pm 17:52 Mostly Cloudy 84 28.9 68 20 59 59 ENE 6 9 29.97 1015 10 16.09344 0.04 1.016
6:52 pm 18:52 Mostly Cloudy 86 30 71 21.7 61 61 SSE 3 6 30 1016 10 16.09344 0 0
7:52 pm 19:52 Cloudy 83 28.3 71 21.7 67 67 NE 13 20 30 1016 10 16.09344 0 0
8:52 pm 20:52 Mostly Cloudy 79 26.1 72 22.2 79 79 ENE 9 15 30.03 1017 10 16.09344 0 0
9:52 pm 21:52 Cloudy 78 25.6 72 22.2 82 82 Calm 30.06 1018 7 11.265408 0.001 0.001
10:52 pm 22:52 Cloudy with Haze 79 26.1 71 21.7 77 77 ENE 3 6 30.06 1018 5 8.04672 0 0
11:52 pm 23:52 Cloudy with Haze 79 26.1 70 21.1 74 74 NNE 6 9 30.06 1018 5 8.04672 0 0

Powered by AerisWeather